TAF and METAR

METAR for F3-Fb-1 Sea

EHFD 180025Z AUTO 05008KT 9999 NSC 10/05 Q1010 W///H///
Report created 18. nov 01:25
report generated by an automatic observation system. wind 8 knots from NE (050°) visibility > 10km No significant clouds. Temperature 10° with dewpoint at 5° (Humidity 71.08%) Pressure 1010 hPa
No TAF available for F3-Fb-1 Sea